Time;durP1;ratioP1;P1;durP2;ratioP2;P2;SDS_P1;SDS_P2;PMS_P1;PMS_P2;Temp;Humidity;BMP_temperature;BMP_pressure;BME280_temperature;BME280_humidity;BME280_pressure;Samples;Min_cycle;Max_cycle;Signal;HPM_P1;HPM_P2
2022/06/29 00:02:11;;;;;;;13.52;7.38;;;665.80;2432.00;;;;;;5082657;28;20022;-76
2022/06/29 00:04:37;;;;;;;9.48;6.55;;;665.70;2432.00;;;;;;5081853;28;20032;-77
2022/06/29 00:07:03;;;;;;;15.68;6.45;;;640.90;2432.00;;;;;;5080314;28;20545;-76
2022/06/29 00:09:29;;;;;;;13.10;6.15;;;640.80;2432.00;;;;;;5082611;28;20099;-77
2022/06/29 00:11:54;;;;;;;13.07;6.47;;;640.70;2432.00;;;;;;5081293;28;20067;-77
2022/06/29 00:14:20;;;;;;;16.23;5.97;;;640.60;2432.00;;;;;;5080069;28;20044;-76
2022/06/29 00:16:46;;;;;;;11.88;6.25;;;640.40;2432.00;;;;;;5082856;28;20466;-77
2022/06/29 00:19:12;;;;;;;9.30;6.38;;;640.40;2432.00;;;;;;5082592;28;20021;-76
2022/06/29 00:21:38;;;;;;;11.40;5.85;;;640.30;2432.00;;;;;;5081515;28;20016;-77
2022/06/29 00:24:04;;;;;;;9.00;5.88;;;640.20;2432.00;;;;;;5065337;28;20107;-77
2022/06/29 00:26:29;;;;;;;8.10;5.70;;;640.10;2432.00;;;;;;5063722;28;20063;-78
2022/06/29 00:28:57;;;;;;;7.15;5.75;;;640.10;2432.00;;;;;;5063771;28;20466;-76
2022/06/29 00:31:22;;;;;;;9.70;5.72;;;640.00;2432.00;;;;;;5083032;28;20508;-76
2022/06/29 00:33:48;;;;;;;7.63;5.22;;;640.00;2432.00;;;;;;5063791;28;20025;-77
2022/06/29 00:36:14;;;;;;;6.93;4.88;;;640.00;2432.00;;;;;;5081722;28;20436;-77
2022/06/29 00:38:39;;;;;;;6.78;5.47;;;640.00;2432.00;;;;;;5065545;28;20114;-77
2022/06/29 00:41:05;;;;;;;7.07;5.43;;;640.00;2432.00;;;;;;5063109;28;20413;-77
2022/06/29 00:43:43;;;;;;;7.90;5.20;;;615.30;2432.00;;;;;;5063653;28;20060;-77
2022/06/29 00:46:09;;;;;;;7.30;5.50;;;615.20;2432.00;;;;;;5081624;28;20521;-77
2022/06/29 00:48:36;;;;;;;7.28;5.28;;;615.30;2432.00;;;;;;5081505;28;20043;-77
2022/06/29 00:51:03;;;;;;;8.45;5.40;;;640.00;2432.00;;;;;;5080755;28;20102;-76
2022/06/29 00:53:37;;;;;;;6.47;5.13;;;615.20;2432.00;;;;;;5079887;28;20017;-77
2022/06/29 00:56:08;;;;;;;12.65;5.53;;;615.30;2432.00;;;;;;5079078;28;20052;-76
2022/06/29 00:58:34;;;;;;;8.65;4.95;;;615.20;2432.00;;;;;;5081658;28;20103;-77
2022/06/29 01:01:04;;;;;;;11.40;4.78;;;615.30;2432.00;;;;;;5082628;28;20024;-77
2022/06/29 01:03:32;;;;;;;7.30;5.50;;;615.30;2432.00;;;;;;5081452;28;20111;-77
2022/06/29 01:06:00;;;;;;;12.15;5.75;;;615.20;2432.00;;;;;;5081012;28;20024;-75
2022/06/29 01:08:26;;;;;;;7.95;6.13;;;615.20;2432.00;;;;;;5081621;28;20100;-77
2022/06/29 01:10:52;;;;;;;6.38;5.28;;;615.20;2432.00;;;;;;5079945;28;20028;-76
2022/06/29 01:13:18;;;;;;;9.32;5.05;;;615.10;2432.00;;;;;;5079395;28;20028;-77
2022/06/29 01:15:43;;;;;;;8.18;5.00;;;615.10;2432.00;;;;;;5081142;28;20949;-77
2022/06/29 01:18:09;;;;;;;10.75;5.47;;;615.10;2432.00;;;;;;5079702;28;20039;-77
2022/06/29 01:20:35;;;;;;;9.77;5.22;;;615.00;2432.00;;;;;;5081598;28;20466;-76
2022/06/29 01:23:01;;;;;;;8.55;5.63;;;614.80;2432.00;;;;;;5082348;28;20024;-76
2022/06/29 01:25:28;;;;;;;7.88;5.40;;;614.90;2432.00;;;;;;5080486;28;20103;-75
2022/06/29 01:27:54;;;;;;;8.18;5.15;;;614.90;2432.00;;;;;;5080022;28;20414;-76
2022/06/29 01:30:20;;;;;;;10.55;6.10;;;614.90;2432.00;;;;;;5064045;28;20039;-77
2022/06/29 01:32:45;;;;;;;9.45;6.25;;;614.80;2432.00;;;;;;5062477;28;20394;-76
2022/06/29 01:35:13;;;;;;;8.18;5.53;;;614.80;2432.00;;;;;;5082077;28;20016;-77
2022/06/29 01:37:40;;;;;;;9.82;5.50;;;614.80;2432.00;;;;;;5080677;28;20557;-77
2022/06/29 01:40:07;;;;;;;7.57;5.10;;;614.80;2432.00;;;;;;5080061;28;20021;-76
2022/06/29 01:42:33;;;;;;;8.88;5.53;;;614.80;2432.00;;;;;;5080302;28;20043;-76
2022/06/29 01:44:59;;;;;;;9.00;5.50;;;614.80;2432.00;;;;;;5081746;28;20522;-78
2022/06/29 01:47:24;;;;;;;6.40;5.07;;;614.70;2432.00;;;;;;5080231;28;20070;-77
2022/06/29 01:49:50;;;;;;;7.78;5.22;;;614.60;2432.00;;;;;;5081899;28;20102;-77
2022/06/29 01:52:16;;;;;;;6.43;4.82;;;614.50;2432.00;;;;;;5081529;28;20017;-77
2022/06/29 01:54:42;;;;;;;10.77;5.32;;;614.40;2432.00;;;;;;5078885;28;20020;-76
2022/06/29 01:57:08;;;;;;;7.88;5.38;;;589.60;2432.00;;;;;;5080217;28;20771;-76
2022/06/29 01:59:34;;;;;;;7.75;6.22;;;589.50;2432.00;;;;;;5081281;28;20017;-75
2022/06/29 02:01:59;;;;;;;7.78;6.13;;;589.40;2432.00;;;;;;5064764;28;20037;-77
2022/06/29 02:04:25;;;;;;;6.72;5.13;;;589.40;2432.00;;;;;;5065611;28;20024;-77
2022/06/29 02:06:51;;;;;;;7.60;5.53;;;589.40;2432.00;;;;;;5085628;28;20016;-78
2022/06/29 02:09:17;;;;;;;9.13;5.53;;;589.40;2432.00;;;;;;5066975;28;20425;-77
2022/06/29 02:11:43;;;;;;;9.05;5.75;;;589.40;2432.00;;;;;;5065666;28;20028;-77
2022/06/29 02:14:09;;;;;;;7.40;5.53;;;589.40;2432.00;;;;;;5086507;28;20029;-77
2022/06/29 02:16:35;;;;;;;10.77;6.32;;;589.50;2432.00;;;;;;5083361;28;20032;-77
2022/06/29 02:19:01;;;;;;;11.80;6.30;;;589.50;2432.00;;;;;;5085526;28;20116;-77
2022/06/29 02:21:26;;;;;;;11.40;6.30;;;589.60;2432.00;;;;;;5082145;28;20437;-77
2022/06/29 02:23:52;;;;;;;8.85;6.15;;;589.50;2432.00;;;;;;5083953;28;20035;-76
2022/06/29 02:26:18;;;;;;;9.85;6.75;;;589.50;2432.00;;;;;;5083175;28;20020;-77
2022/06/29 02:28:44;;;;;;;8.95;5.72;;;589.50;2432.00;;;;;;5081537;28;20063;-77
2022/06/29 02:36:38;;;;;;;13.23;6.13;;;589.50;2432.00;;;;;;5084843;28;20398;-76
2022/06/29 02:39:04;;;;;;;9.88;6.63;;;589.40;2432.00;;;;;;5083183;28;20017;-76
2022/06/29 02:41:29;;;;;;;6.95;5.40;;;589.40;2432.00;;;;;;5083958;28;20082;-76
2022/06/29 02:43:55;;;;;;;9.75;5.80;;;589.10;2432.00;;;;;;5084125;28;20040;-76
2022/06/29 02:46:21;;;;;;;13.23;7.40;;;589.20;2432.00;;;;;;5084683;28;20032;-76
2022/06/29 02:48:47;;;;;;;11.20;7.05;;;589.20;2432.00;;;;;;5064899;28;20063;-77
2022/06/29 02:51:12;;;;;;;9.30;5.95;;;589.20;2432.00;;;;;;5084799;28;20020;-76
2022/06/29 02:53:38;;;;;;;10.65;7.10;;;589.10;2432.00;;;;;;5066108;28;20051;-76
2022/06/29 02:56:04;;;;;;;6.75;6.05;;;589.10;2432.00;;;;;;5082926;28;20530;-76
2022/06/29 02:58:30;;;;;;;8.32;6.78;;;589.10;2432.00;;;;;;5084804;28;20417;-76
2022/06/29 03:00:56;;;;;;;10.30;7.15;;;589.00;2432.00;;;;;;5083522;28;20024;-76
2022/06/29 03:03:21;;;;;;;13.70;6.38;;;589.00;2432.00;;;;;;5083634;28;20031;-77
2022/06/29 03:05:47;;;;;;;10.15;6.88;;;588.90;2432.00;;;;;;5066600;28;20024;-77
2022/06/29 03:08:13;;;;;;;9.77;7.20;;;588.80;2432.00;;;;;;5081860;28;20451;-77
2022/06/29 03:10:38;;;;;;;10.05;6.07;;;564.10;2432.00;;;;;;5082276;28;20024;-76
2022/06/29 03:13:04;;;;;;;11.93;6.28;;;564.10;2432.00;;;;;;5083814;28;20048;-77
2022/06/29 03:15:30;;;;;;;9.25;6.70;;;588.80;2432.00;;;;;;5082045;28;20075;-76
2022/06/29 03:17:56;;;;;;;12.55;6.63;;;588.90;2432.00;;;;;;5083863;28;20036;-77
2022/06/29 03:20:22;;;;;;;15.55;7.05;;;588.90;2432.00;;;;;;5082786;28;20032;-77
2022/06/29 03:22:48;;;;;;;10.63;6.38;;;588.80;2432.00;;;;;;5080918;28;20051;-77
2022/06/29 03:25:15;;;;;;;10.50;7.47;;;588.90;2432.00;;;;;;5084249;28;20101;-77
2022/06/29 03:27:42;;;;;;;9.02;6.50;;;588.80;2432.00;;;;;;5082212;28;20506;-76
2022/06/29 03:30:08;;;;;;;9.90;7.35;;;588.90;2432.00;;;;;;5081106;28;20115;-77
2022/06/29 03:32:34;;;;;;;8.75;6.30;;;588.80;2432.00;;;;;;5082619;28;20473;-77
2022/06/29 03:35:00;;;;;;;9.23;6.05;;;588.80;2432.00;;;;;;5081899;28;20124;-77
2022/06/29 03:37:26;;;;;;;15.80;6.65;;;588.90;2432.00;;;;;;5080746;28;20119;-77
2022/06/29 03:39:52;;;;;;;11.90;5.88;;;588.90;2432.00;;;;;;5083973;28;20024;-77
2022/06/29 03:42:18;;;;;;;11.32;6.22;;;589.00;2432.00;;;;;;5081528;28;20162;-77
2022/06/29 03:44:43;;;;;;;7.03;5.32;;;589.00;2432.00;;;;;;5080845;28;20032;-77
2022/06/29 03:47:09;;;;;;;12.43;6.75;;;589.10;2432.00;;;;;;5082832;28;20032;-77
2022/06/29 03:49:35;;;;;;;10.93;6.57;;;589.10;2432.00;;;;;;5080866;28;20069;-77
2022/06/29 03:52:05;;;;;;;8.40;5.45;;;589.30;2432.00;;;;;;5082855;28;20058;-78
2022/06/29 03:54:31;;;;;;;9.82;5.40;;;589.30;2432.00;;;;;;5065406;28;20535;-77
2022/06/29 03:56:57;;;;;;;7.47;5.97;;;589.20;2432.00;;;;;;5064184;28;20413;-78
2022/06/29 03:59:23;;;;;;;11.70;6.45;;;589.40;2432.00;;;;;;5082241;28;20016;-76
2022/06/29 04:01:49;;;;;;;8.93;5.53;;;589.50;2432.00;;;;;;5083786;28;20409;-78
2022/06/29 04:04:15;;;;;;;6.85;5.40;;;589.40;2432.00;;;;;;5080796;28;20020;-77
2022/06/29 04:06:41;;;;;;;13.93;5.35;;;589.50;2432.00;;;;;;5082508;28;20022;-77
2022/06/29 04:09:07;;;;;;;8.07;4.80;;;589.50;2432.00;;;;;;5065364;28;20031;-76
2022/06/29 04:14:18;;;;;;;7.43;4.40;;;589.40;2432.00;;;;;;5081935;28;20048;-77
2022/06/29 04:16:44;;;;;;;7.00;4.53;;;589.50;2432.00;;;;;;5079960;28;20116;-77
2022/06/29 04:19:10;;;;;;;8.75;4.00;;;589.50;2432.00;;;;;;5091556;28;20501;-77
2022/06/29 04:21:36;;;;;;;7.20;5.13;;;589.60;2432.00;;;;;;5092806;28;20032;-78
2022/06/29 04:24:02;;;;;;;5.97;4.25;;;589.70;2432.00;;;;;;5091305;28;20030;-78
2022/06/29 04:26:28;;;;;;;4.93;4.20;;;614.40;2432.00;;;;;;5091340;28;20115;-77
2022/06/29 04:28:54;;;;;;;7.63;3.78;;;614.40;2432.00;;;;;;5092299;28;20075;-78
2022/06/29 04:31:19;;;;;;;8.30;4.43;;;614.50;2432.00;;;;;;5091307;28;20035;-78
2022/06/29 04:33:45;;;;;;;9.63;4.28;;;614.50;2432.00;;;;;;5092451;28;20462;-78
2022/06/29 04:36:11;;;;;;;5.05;4.10;;;614.60;2432.00;;;;;;5091082;28;20496;-77
2022/06/29 04:38:36;;;;;;;7.57;4.20;;;614.60;2432.00;;;;;;5090971;28;20054;-77
2022/06/29 04:41:02;;;;;;;7.90;4.18;;;614.70;2432.00;;;;;;5091366;28;20020;-77
2022/06/29 04:43:29;;;;;;;10.57;4.22;;;614.70;2432.00;;;;;;5090665;28;20051;-78
2022/06/29 04:48:39;;;;;;;6.43;4.38;;;614.70;2432.00;;;;;;5089424;28;20469;-77
2022/06/29 04:51:05;;;;;;;7.15;3.92;;;614.80;2432.00;;;;;;5090889;28;20069;-78
2022/06/29 04:53:31;;;;;;;6.55;4.28;;;614.80;2432.00;;;;;;5092304;28;20035;-76
2022/06/29 04:55:57;;;;;;;5.60;3.88;;;614.80;2432.00;;;;;;5090655;28;20122;-78
2022/06/29 04:58:22;;;;;;;7.88;4.28;;;615.00;2432.00;;;;;;5092312;28;20103;-77
2022/06/29 05:00:48;;;;;;;8.45;4.53;;;615.00;2432.00;;;;;;5090074;28;20043;-77
2022/06/29 05:03:14;;;;;;;5.90;3.80;;;615.10;2432.00;;;;;;5092416;28;20035;-78
2022/06/29 05:05:40;;;;;;;5.05;3.75;;;615.20;2432.00;;;;;;5090893;28;20028;-77
2022/06/29 05:08:06;;;;;;;10.05;3.92;;;615.30;2432.00;;;;;;5090578;28;20023;-78
2022/06/29 05:10:31;;;;;;;5.07;3.78;;;615.30;2432.00;;;;;;5091070;28;20024;-78
2022/06/29 05:12:57;;;;;;;7.40;3.85;;;640.00;2432.00;;;;;;5090511;28;20104;-78
2022/06/29 05:15:23;;;;;;;5.32;3.85;;;640.10;2432.00;;;;;;5092185;28;20539;-78
2022/06/29 05:17:49;;;;;;;7.90;4.32;;;640.10;2432.00;;;;;;5090539;28;20066;-77
2022/06/29 05:20:15;;;;;;;7.35;4.20;;;615.10;2432.00;;;;;;5082911;28;20449;-78
2022/06/29 05:22:41;;;;;;;8.82;4.53;;;640.20;2406.40;;;;;;5082689;28;20024;-78
2022/06/29 05:25:08;;;;;;;5.50;3.97;;;640.40;2380.80;;;;;;5089308;28;20012;-78
2022/06/29 05:27:34;;;;;;;8.00;4.22;;;640.40;2355.20;;;;;;5091749;28;20559;-77
2022/06/29 05:30:00;;;;;;;5.15;3.70;;;640.50;2304.00;;;;;;5090663;28;20036;-77
2022/06/29 05:32:26;;;;;;;8.23;4.28;;;640.60;2329.60;;;;;;5090824;28;20029;-78
2022/06/29 05:34:52;;;;;;;12.20;4.55;;;640.70;2304.00;;;;;;5090649;28;20029;-78
2022/06/29 05:37:17;;;;;;;5.68;3.40;;;640.90;2278.40;;;;;;5093496;28;20077;-78
2022/06/29 05:39:44;;;;;;;5.50;3.70;;;640.90;2227.20;;;;;;5095839;28;20027;-78
2022/06/29 05:42:12;;;;;;;9.00;4.30;;;665.60;2278.40;;;;;;5095039;28;20065;-79
2022/06/29 05:44:39;;;;;;;8.48;4.13;;;665.70;2252.80;;;;;;5094556;28;20505;-79
2022/06/29 05:47:05;;;;;;;7.78;4.85;;;665.80;2201.60;;;;;;5094836;28;20043;-79
2022/06/29 05:49:31;;;;;;;8.30;4.22;;;665.70;2201.60;;;;;;5101964;28;20073;-79
2022/06/29 05:51:57;;;;;;;9.70;4.57;;;666.00;2227.20;;;;;;5095042;28;20115;-80
2022/06/29 05:54:23;;;;;;;7.05;3.70;;;666.10;2227.20;;;;;;5086176;28;20035;-79
2022/06/29 05:56:48;;;;;;;8.95;4.15;;;666.20;2227.20;;;;;;5085113;28;20170;-79
2022/06/29 05:59:14;;;;;;;8.52;3.75;;;666.30;2201.60;;;;;;5083594;28;20359;-79
2022/06/29 06:01:40;;;;;;;5.40;3.88;;;666.50;2150.40;;;;;;5092795;28;20035;-80
2022/06/29 06:04:06;;;;;;;5.88;4.35;;;666.50;2150.40;;;;;;5094705;28;20440;-79
2022/06/29 06:06:32;;;;;;;7.03;4.32;;;691.30;2176.00;;;;;;5094286;28;20043;-80
2022/06/29 06:09:00;;;;;;;9.18;4.32;;;691.30;2150.40;;;;;;5095741;28;20035;-78
2022/06/29 06:11:26;;;;;;;13.32;4.38;;;691.30;2073.60;;;;;;5095559;28;20023;-82
2022/06/29 06:13:51;;;;;;;9.18;4.15;;;691.50;2073.60;;;;;;5094384;28;20136;-80
2022/06/29 06:16:17;;;;;;;7.18;4.68;;;691.60;2048.00;;;;;;5095601;28;20485;-79
2022/06/29 06:18:43;;;;;;;10.43;4.05;;;691.70;1996.80;;;;;;5095234;28;20501;-80
2022/06/29 06:21:09;;;;;;;12.80;4.43;;;691.80;2022.40;;;;;;5093500;28;20109;-80
2022/06/29 06:23:34;;;;;;;10.27;4.35;;;691.90;1971.20;;;;;;5095077;28;20039;-80
2022/06/29 06:26:00;;;;;;;4.97;3.90;;;692.00;1945.60;;;;;;5094267;28;20017;-79
2022/06/29 06:28:26;;;;;;;5.13;3.38;;;692.10;1894.40;;;;;;5093822;28;20489;-79
2022/06/29 06:30:51;;;;;;;10.60;5.00;;;716.80;1920.00;;;;;;5093867;28;20081;-78
2022/06/29 06:33:17;;;;;;;6.03;3.55;;;716.90;1894.40;;;;;;5093646;28;20068;-79
2022/06/29 06:35:43;;;;;;;8.57;3.90;;;716.90;1868.80;;;;;;5093709;28;20085;-80
2022/06/29 06:38:09;;;;;;;9.35;3.92;;;717.10;1868.80;;;;;;5093427;28;20038;-78
2022/06/29 06:43:19;;;;;;;9.95;4.95;;;717.40;1766.40;;;;;;5094997;28;20101;-78
2022/06/29 06:45:46;;;;;;;7.30;3.63;;;717.50;1792.00;;;;;;5092920;28;20032;-78
2022/06/29 06:48:12;;;;;;;5.25;4.18;;;717.50;1740.80;;;;;;5092547;28;20107;-79
2022/06/29 06:50:37;;;;;;;11.23;3.90;;;717.70;1715.20;;;;;;5078316;28;20143;-78
2022/06/29 06:53:03;;;;;;;5.22;3.53;;;742.40;1715.20;;;;;;5093509;28;20389;-78
2022/06/29 06:55:29;;;;;;;5.63;3.58;;;742.50;1715.20;;;;;;5093081;28;20474;-78
2022/06/29 06:57:55;;;;;;;9.77;4.43;;;742.60;1715.20;;;;;;5093257;28;20036;-83
2022/06/29 07:00:21;;;;;;;4.03;3.33;;;742.80;1689.60;;;;;;5093350;28;20107;-80
2022/06/29 07:02:47;;;;;;;8.65;3.95;;;742.90;1612.80;;;;;;5096517;28;20024;-83
2022/06/29 07:05:13;;;;;;;5.47;3.88;;;742.90;1587.20;;;;;;5093324;28;20373;-79
2022/06/29 07:07:39;;;;;;;5.03;3.67;;;743.00;1587.20;;;;;;5093483;28;20071;-78
2022/06/29 07:10:05;;;;;;;5.93;3.72;;;743.00;1536.00;;;;;;5094577;28;20012;-81
2022/06/29 07:12:31;;;;;;;8.90;4.25;;;743.10;1561.60;;;;;;5094556;28;20077;-81
2022/06/29 07:14:57;;;;;;;10.43;4.35;;;743.20;1536.00;;;;;;5093196;28;20478;-80
2022/06/29 07:17:23;;;;;;;7.38;4.28;;;743.30;1510.40;;;;;;5094269;28;20519;-80
2022/06/29 07:19:49;;;;;;;7.45;4.38;;;743.30;1536.00;;;;;;5093271;28;20055;-79
2022/06/29 07:22:15;;;;;;;9.40;4.07;;;768.00;1536.00;;;;;;5092723;28;20130;-80
2022/06/29 07:24:40;;;;;;;8.35;4.53;;;768.10;1510.40;;;;;;5092891;28;20024;-78
2022/06/29 07:27:06;;;;;;;5.43;4.32;;;768.20;1510.40;;;;;;5092777;28;20020;-79
2022/06/29 07:29:32;;;;;;;5.40;4.47;;;768.10;1510.40;;;;;;5086822;28;20098;-80
2022/06/29 07:31:58;;;;;;;7.50;4.82;;;743.30;1510.40;;;;;;5083016;28;20485;-79
2022/06/29 07:34:24;;;;;;;10.35;4.22;;;768.40;1484.80;;;;;;5081700;28;20054;-80
2022/06/29 07:36:49;;;;;;;9.15;5.43;;;768.60;1510.40;;;;;;5092471;28;20481;-79
2022/06/29 07:39:15;;;;;;;11.02;4.53;;;768.80;1484.80;;;;;;5092275;28;20493;-81
2022/06/29 07:41:41;;;;;;;13.27;5.40;;;768.90;1484.80;;;;;;5092734;28;20049;-79
2022/06/29 07:44:07;;;;;;;7.22;4.75;;;768.90;1459.20;;;;;;5080421;28;20075;-83
2022/06/29 07:46:33;;;;;;;11.80;6.03;;;768.90;1433.60;;;;;;5081432;28;20111;-79
2022/06/29 07:48:58;;;;;;;7.85;4.85;;;768.90;1433.60;;;;;;5081943;28;20462;-78
2022/06/29 07:51:25;;;;;;;19.67;6.50;;;793.60;1484.80;;;;;;5072204;28;20470;-80
2022/06/29 07:53:51;;;;;;;7.35;5.18;;;793.80;1484.80;;;;;;5085759;28;20454;-78
2022/06/29 07:56:16;;;;;;;10.68;5.60;;;793.80;1433.60;;;;;;5095615;28;20065;-82
2022/06/29 07:58:42;;;;;;;9.55;4.90;;;794.00;1459.20;;;;;;5102151;28;20024;-78
2022/06/29 08:01:08;;;;;;;6.35;4.63;;;794.00;1433.60;;;;;;5091753;28;20027;-77
2022/06/29 08:03:34;;;;;;;7.85;4.88;;;794.00;1408.00;;;;;;5091564;28;20060;-79
2022/06/29 08:06:00;;;;;;;7.32;4.82;;;794.00;1433.60;;;;;;5091854;28;20519;-78
2022/06/29 08:08:27;;;;;;;6.97;5.00;;;794.30;1433.60;;;;;;5092257;28;20016;-79
2022/06/29 08:10:53;;;;;;;9.50;5.43;;;794.40;1408.00;;;;;;5091857;28;20115;-81
2022/06/29 08:13:19;;;;;;;9.57;4.90;;;794.50;1433.60;;;;;;5091962;28;20108;-78
2022/06/29 08:15:45;;;;;;;9.27;4.78;;;819.20;1433.60;;;;;;5091762;28;20028;-82
2022/06/29 08:18:15;;;;;;;8.85;5.10;;;819.20;1382.40;;;;;;5091890;28;20027;-80
2022/06/29 08:20:41;;;;;;;7.28;5.30;;;794.50;1382.40;;;;;;5091190;28;20032;-79
2022/06/29 08:23:07;;;;;;;5.88;5.25;;;794.50;1382.40;;;;;;5091512;28;20081;-81
2022/06/29 08:25:32;;;;;;;6.93;4.93;;;794.50;1356.80;;;;;;5085697;28;20124;-78
2022/06/29 08:28:00;;;;;;;7.57;4.90;;;794.50;1331.20;;;;;;5083014;28;20636;-79
2022/06/29 08:30:27;;;;;;;6.13;4.47;;;794.50;1331.20;;;;;;5081651;28;20033;-79
2022/06/29 08:32:53;;;;;;;8.75;5.18;;;819.30;1356.80;;;;;;5080204;28;20640;-79
2022/06/29 08:35:19;;;;;;;8.50;5.03;;;819.30;1382.40;;;;;;5081977;28;20024;-79
2022/06/29 08:37:46;;;;;;;6.18;4.88;;;819.40;1382.40;;;;;;5081571;28;20035;-82
2022/06/29 08:40:14;;;;;;;17.17;6.30;;;819.50;1356.80;;;;;;5080295;28;20051;-80
2022/06/29 08:42:40;;;;;;;5.35;4.53;;;819.50;1356.80;;;;;;5064601;28;20024;-80
2022/06/29 08:45:08;;;;;;;6.90;4.78;;;819.30;1356.80;;;;;;5062154;28;20049;-81
2022/06/29 08:47:35;;;;;;;7.90;4.40;;;819.30;1356.80;;;;;;5064306;28;20054;-80
2022/06/29 08:50:07;;;;;;;6.28;4.20;;;819.40;1382.40;;;;;;5063051;28;20048;-80
2022/06/29 08:52:36;;;;;;;11.75;4.85;;;819.50;1356.80;;;;;;5064372;28;20470;-80
2022/06/29 08:55:04;;;;;;;7.28;5.07;;;819.70;1356.80;;;;;;5079778;28;20028;-80
2022/06/29 08:57:30;;;;;;;10.82;4.90;;;819.70;1331.20;;;;;;5081444;28;20032;-78
2022/06/29 08:59:56;;;;;;;9.38;4.53;;;819.90;1331.20;;;;;;5079927;28;20029;-78
2022/06/29 09:02:22;;;;;;;9.27;3.88;;;819.90;1280.00;;;;;;5081143;28;20031;-82
2022/06/29 09:04:49;;;;;;;7.50;4.65;;;819.90;1254.40;;;;;;5081081;28;20028;-79
2022/06/29 09:07:15;;;;;;;9.98;4.43;;;819.90;1280.00;;;;;;5080313;28;20032;-82
2022/06/29 09:10:07;;;;;;;9.23;5.63;;;820.10;1280.00;;;;;;5089180;28;20030;-81
2022/06/29 09:12:33;;;;;;;6.20;4.57;;;844.80;1331.20;;;;;;5089746;28;20028;-80
2022/06/29 09:15:00;;;;;;;10.70;4.30;;;844.90;1305.60;;;;;;5091657;28;20028;-80
2022/06/29 09:17:26;;;;;;;10.57;4.60;;;845.20;1280.00;;;;;;5063124;28;20454;-81
2022/06/29 09:19:53;;;;;;;5.50;4.30;;;845.10;1280.00;;;;;;5089637;28;20056;-78
2022/06/29 09:22:19;;;;;;;5.78;4.32;;;845.10;1280.00;;;;;;5091794;28;20447;-77
2022/06/29 09:24:45;;;;;;;5.53;4.53;;;845.10;1280.00;;;;;;5073566;28;20031;-84
2022/06/29 09:27:12;;;;;;;7.60;3.88;;;845.00;1254.40;;;;;;5092379;28;20028;-78
2022/06/29 09:29:43;;;;;;;10.20;4.25;;;845.10;1254.40;;;;;;5092413;28;20050;-80
2022/06/29 09:32:12;;;;;;;10.50;4.22;;;844.90;1228.80;;;;;;5073920;28;20035;-79
2022/06/29 09:34:52;;;;;;;5.35;3.90;;;820.10;1203.20;;;;;;5074424;28;20054;-84
2022/06/29 09:37:20;;;;;;;5.88;3.50;;;844.80;1228.80;;;;;;5074140;28;20030;-84
2022/06/29 09:39:54;;;;;;;6.85;3.38;;;845.10;1228.80;;;;;;5074491;28;20034;-81
2022/06/29 09:42:20;;;;;;;5.93;4.00;;;845.20;1177.60;;;;;;5077189;28;20086;-85
2022/06/29 09:44:47;;;;;;;6.20;3.47;;;845.20;1177.60;;;;;;5077498;28;20041;-79
2022/06/29 09:47:16;;;;;;;6.88;4.00;;;845.40;1177.60;;;;;;5079364;28;20044;-83
2022/06/29 09:49:43;;;;;;;5.00;3.45;;;845.60;1152.00;;;;;;5079816;28;20082;-81
2022/06/29 09:52:10;;;;;;;8.23;4.03;;;870.40;1152.00;;;;;;5080708;28;20012;-79
2022/06/29 09:55:00;;;;;;;11.38;4.75;;;870.70;1152.00;;;;;;5062446;28;20033;-79
2022/06/29 09:57:29;;;;;;;5.75;3.83;;;870.80;1126.40;;;;;;4985974;28;20114;-79
2022/06/29 10:02:48;;;;;;;7.18;4.03;;;871.00;1100.80;;;;;;5009851;28;20044;-87
2022/06/29 10:05:21;;;;;;;17.67;4.70;;;871.10;1100.80;;;;;;4993631;28;20034;-80
2022/06/29 10:07:50;;;;;;;9.13;4.28;;;871.10;1100.80;;;;;;5003722;28;20084;-88
2022/06/29 10:10:20;;;;;;;5.38;3.63;;;871.30;1100.80;;;;;;5009811;28;20384;-84
2022/06/29 10:13:42;;;;;;;6.72;3.45;;;896.00;1075.20;;;;;;4992905;28;20170;-83
2022/06/29 10:16:31;;;;;;;5.85;3.80;;;896.10;1049.60;;;;;;5029533;28;20050;-82
2022/06/29 10:18:59;;;;;;;7.43;3.75;;;896.50;1075.20;;;;;;5029480;28;20033;-81
2022/06/29 10:21:31;;;;;;;6.53;3.28;;;896.60;1075.20;;;;;;5018647;28;20029;-79
2022/06/29 10:23:58;;;;;;;12.13;3.63;;;896.70;1049.60;;;;;;5029336;28;20597;-84
2022/06/29 10:26:37;;;;;;;5.68;3.17;;;896.50;1024.00;;;;;;5005687;28;20025;-86
2022/06/29 10:29:05;;;;;;;5.72;3.75;;;896.50;1049.60;;;;;;5032576;28;20037;-81
2022/06/29 10:31:49;;;;;;;8.48;2.72;;;896.20;1024.00;;;;;;5020352;28;20033;-80
2022/06/29 10:34:30;;;;;;;8.93;3.53;;;896.30;1049.60;;;;;;5048337;28;20025;-80
2022/06/29 10:37:02;;;;;;;5.85;3.08;;;896.30;1049.60;;;;;;5083289;28;20120;-79
2022/06/29 10:39:48;;;;;;;6.35;3.28;;;896.30;1024.00;;;;;;5065122;28;20509;-83
2022/06/29 10:45:08;;;;;;;4.93;3.20;;;896.70;1049.60;;;;;;5076833;28;20158;-82
2022/06/29 10:47:35;;;;;;;5.70;3.58;;;896.60;998.40;;;;;;5062946;28;20367;-83
2022/06/29 10:50:25;;;;;;;4.95;3.28;;;896.90;1024.00;;;;;;5046359;28;20076;-80
2022/06/29 10:53:15;;;;;;;12.15;3.58;;;921.70;1024.00;;;;;;5044942;28;20044;-81
2022/06/29 10:55:47;;;;;;;6.75;3.72;;;921.80;1024.00;;;;;;5065252;28;20059;-78
2022/06/29 10:58:13;;;;;;;7.07;3.38;;;896.90;1024.00;;;;;;5046369;28;20086;-78
2022/06/29 11:00:44;;;;;;;7.45;3.85;;;921.70;1049.60;;;;;;5062995;28;20017;-80
2022/06/29 11:03:22;;;;;;;7.40;3.17;;;921.90;1024.00;;;;;;5064839;28;20028;-79
2022/06/29 11:17:39;;;;;;;9.82;4.07;;;922.00;1024.00;;;;;;4992449;28;20089;-80
2022/06/29 11:19:55;;;;;;;;;;;922.10;1024.00;;;;;;4992802;28;20034;-79
2022/06/29 11:22:22;;;;;;;4.40;3.60;;;896.90;998.40;;;;;;4992312;28;19918;-79
2022/06/29 11:24:50;;;;;;;8.63;3.95;;;921.90;1049.60;;;;;;4981466;28;20022;-78
2022/06/29 11:27:48;;;;;;;6.60;3.63;;;922.00;1024.00;;;;;;4981977;28;20030;-78
2022/06/29 11:30:21;;;;;;;7.85;3.78;;;922.00;1024.00;;;;;;4926952;29;20060;-81
2022/06/29 11:32:49;;;;;;;6.35;3.30;;;922.10;1024.00;;;;;;4911682;29;20435;-79
2022/06/29 11:35:16;;;;;;;5.40;3.40;;;922.00;1024.00;;;;;;4907704;29;20024;-78
2022/06/29 11:37:53;;;;;;;6.63;3.45;;;922.00;998.40;;;;;;4917626;29;20067;-79
2022/06/29 11:40:36;;;;;;;9.63;3.75;;;922.00;998.40;;;;;;4908897;29;20039;-78
2022/06/29 11:43:10;;;;;;;7.88;3.60;;;922.40;1024.00;;;;;;4925239;29;20403;-79
2022/06/29 11:45:45;;;;;;;7.38;3.55;;;922.40;972.80;;;;;;4948332;28;21102;-80
2022/06/29 11:48:15;;;;;;;7.63;3.20;;;922.00;998.40;;;;;;4980756;28;20097;-81
2022/06/29 11:50:56;;;;;;;8.05;3.63;;;922.00;1024.00;;;;;;4965546;28;20022;-82
2022/06/29 11:53:41;;;;;;;5.70;3.50;;;922.00;998.40;;;;;;4966850;28;20892;-79
2022/06/29 11:56:13;;;;;;;4.90;3.70;;;922.30;998.40;;;;;;4964079;28;20026;-87
2022/06/29 11:58:41;;;;;;;7.22;3.30;;;922.00;998.40;;;;;;4991704;28;20089;-82
2022/06/29 12:01:16;;;;;;;8.30;3.30;;;922.40;1024.00;;;;;;4979182;28;20026;-81
2022/06/29 12:03:48;;;;;;;;;;;922.30;972.80;;;;;;4992396;28;20506;-81
2022/06/29 12:06:14;;;;;;;14.05;3.85;;;922.40;998.40;;;;;;5035480;28;19911;-84
2022/06/29 12:08:41;;;;;;;7.75;4.13;;;922.30;972.80;;;;;;5055250;28;20056;-81
2022/06/29 12:11:07;;;;;;;4.15;3.28;;;922.40;998.40;;;;;;5067650;28;20017;-83
2022/06/29 12:13:33;;;;;;;16.27;3.80;;;922.50;998.40;;;;;;5071493;28;20540;-80
2022/06/29 12:15:59;;;;;;;4.85;3.42;;;922.50;1024.00;;;;;;5071214;28;20040;-81
2022/06/29 12:18:24;;;;;;;8.57;3.17;;;922.40;998.40;;;;;;5072139;28;20079;-78
2022/06/29 12:20:50;;;;;;;10.32;4.22;;;947.30;1024.00;;;;;;5051365;28;20410;-80
2022/06/29 12:23:17;;;;;;;10.60;3.78;;;947.30;998.40;;;;;;5072331;28;20497;-79
2022/06/29 12:25:44;;;;;;;8.98;4.22;;;947.30;998.40;;;;;;5054888;28;20020;-78
2022/06/29 12:28:10;;;;;;;5.80;3.45;;;922.40;998.40;;;;;;5071111;28;20415;-81
2022/06/29 12:30:36;;;;;;;6.18;4.05;;;947.40;1024.00;;;;;;5070424;28;20154;-81
2022/06/29 12:33:02;;;;;;;6.47;3.63;;;947.30;1024.00;;;;;;5047252;28;20447;-81
2022/06/29 12:35:29;;;;;;;11.50;4.10;;;947.20;1024.00;;;;;;5050031;28;20043;-81
2022/06/29 12:37:57;;;;;;;7.95;4.32;;;947.30;1024.00;;;;;;5070467;28;20044;-81
2022/06/29 12:40:26;;;;;;;6.03;3.80;;;947.30;1024.00;;;;;;5045693;28;20103;-81
2022/06/29 12:42:53;;;;;;;8.30;3.72;;;947.30;1024.00;;;;;;5043895;28;20490;-81
2022/06/29 12:45:19;;;;;;;5.90;3.70;;;947.30;1049.60;;;;;;5064248;28;20139;-81
2022/06/29 12:47:46;;;;;;;9.82;3.80;;;922.50;1049.60;;;;;;5063125;28;20040;-80
2022/06/29 12:50:12;;;;;;;10.50;4.55;;;922.50;1049.60;;;;;;5065516;28;20028;-82